Drewsville, New Hampshire
Current Conditions -  °F | °C
As of 10:54 PM on Friday 31 Oct 2014 (Local Time) from KVSF Reporting Station
Broken Clouds Broken Clouds  
Wind Chill: 39°   Ceiling: 5500
Heat Index: 39°   Visibility: 10mi
Dew Point: 36°   Wind: 0mph
Humidity: 89%   Direction: NA
Pressure: 30"   Gusts: NA
Location:  43.13°N, 72.39°W
Report Text: KVSF 010254Z AUTO 00000KT 10SM BKN055 04/02 A3000 RMK AO2 SLP165 T00390022 58002
Loading
Personal Weather Stations






























Interactive Weather Map
Tropical Storm Tracking
New forecast layout! Learn more

10-Day Weather Forecast

Advertisements
Track Severe Weather on mobile